Terminal Aerodrome Forecast
Issued by NWS

Home | Current Version | Previous Version | Text Only | Print | Product List | Glossary On
Versions: 1 2 3 4 5 6 7 8 9 10 11 12 13 14 15 16 17
000
FTUS46 KSEW 281120
TAFBFI
TAF
KBFI 281120Z 2812/2912 16008KT P6SM -RA SCT022 OVC040
      TEMPO 2812/2815 -RA OVC022
     FM281500 16008KT P6SM OVC025
      TEMPO 2815/2819 -RA
     FM281900 17010KT P6SM -RA BKN030 OVC050
     FM282200 18012G20KT P6SM VCSH BKN035 OVC050
     FM290400 16005KT P6SM OVC035=

USA.gov is the U.S. government's official web portal to all federal, state and local government web resources and services.